Meath Environmental Platform

Observations for Trim Market St

Time AQI Temp °C Hum % Pres Pa CO μg/m³ H₂S μg/m³ NO μg/m³ NO₂ μg/m³ O₃ μg/m³ SO₂ μg/m³ PM1 μg/m³ PM2.5 μg/m³ PM10 μg/m³
Thursday 9 July 2026
22:32 1 22.9 62 57,549 0 0 0 9.18 14.67 0 0 2.41 3.5
22:31 1 22.9 62 57,565 0 0 0 8.68 9.77 0 1.43 2.91 4.17
22:30 1 22.9 62 57,582 0 0 0 9.79 11.42 0 0.71 2.42 3.5
22:29 1 23 62 57,600 0 0.39 0 11.59 15.71 0 0.71 2.43 3.49
22:28 1 23 62 57,615 0 0 0 10.2 6.89 0 2.14 3.92 5.51
22:27 1 23 62 57,626 0 0 0 8.21 18.35 0 1.43 2.93 4.16
22:22 1 23.2 62 57,653 0 0 0 8.69 10.17 0 0.71 2.45 4.15
22:20 1 23.2 62 57,666 0 0 0 9.91 11.17 0 0.71 2.46 3.47
22:19 1 23.2 61 57,671 0 0 0 7.62 13.18 0 0.71 2.46 3.46
22:17 1 23.3 61 57,683 0 0 0 7.31 9.87 0 1.43 2.97 4.14
22:09 1 23.5 61 57,722 0 0 0 8.02 12.5 0 1.43 2.99 4.12
22:08 1 23.6 61 57,725 0 0 0 9.81 13.57 0 1.43 3.5 5.48
22:07 1 23.6 60 57,730 0 0 0 9.43 11.56 0 1.43 3.01 4.11
22:06 1 23.6 60 57,735 0 0 0 9.53 11.11 0 1.43 3.51 4.79
22:05 1 23.7 60 57,739 0 0 0 9.82 11.39 0 1.43 3.51 4.79
22:03 1 23.7 60 57,749 0 0 0 11.14 10.44 0 2.14 3.02 4.1
22:02 1 23.7 60 57,753 0 0 0 6.74 13.73 0 0 2.02 2.73
22:01 1 23.7 60 57,756 0 0.32 0 9.74 10.48 0 0.71 3.52 5.47
21:59 1 23.8 60 57,765 0 0 0 10.33 10.7 0 1.43 3.53 4.78
21:57 1 23.9 60 57,770 0 0 0 8.02 11.56 0 0.71 2.53 3.4